createdAt,value
2019-01-31T00:00:51.048Z,17.85
2019-01-31T00:04:12.898Z,18.60
2019-01-31T00:08:00.874Z,18.45
2019-01-31T00:11:08.646Z,19.23
2019-01-31T00:14:26.017Z,18.65
2019-01-31T00:17:49.935Z,18.73
2019-01-31T00:21:50.598Z,18.80
2019-01-31T00:25:12.041Z,18.53
2019-01-31T00:28:38.423Z,18.40
2019-01-31T00:31:57.441Z,19.00
2019-01-31T00:35:12.720Z,19.30
2019-01-31T00:38:26.405Z,19.07
2019-01-31T00:41:43.380Z,18.93
2019-01-31T00:45:27.215Z,19.07
2019-01-31T00:49:15.241Z,19.25
2019-01-31T00:52:30.847Z,18.70
2019-01-31T00:55:55.098Z,19.62
2019-01-31T00:59:40.441Z,19.30
2019-01-31T01:03:23.613Z,19.25
2019-01-31T01:07:09.691Z,19.35
2019-01-31T01:10:38.741Z,18.13
2019-01-31T01:13:39.249Z,20.97
2019-01-31T01:16:53.445Z,19.02
2019-01-31T01:20:47.629Z,19.07
2019-01-31T01:24:27.796Z,18.15
2019-01-31T01:27:37.861Z,19.52
2019-01-31T01:31:30.058Z,19.12
2019-01-31T01:35:30.619Z,18.55
2019-01-31T01:39:19.626Z,19.02
2019-01-31T01:42:51.269Z,18.77
2019-01-31T01:46:12.574Z,19.25
2019-01-31T01:49:06.854Z,19.32
2019-01-31T01:52:43.655Z,20.60
2019-01-31T01:56:14.275Z,19.23
2019-01-31T01:59:27.679Z,19.30
2019-01-31T02:02:50.055Z,19.20
2019-01-31T02:06:19.796Z,20.12
2019-01-31T02:09:38.850Z,19.82
2019-01-31T02:13:22.506Z,19.63
2019-01-31T02:16:36.134Z,20.13
2019-01-31T02:19:57.150Z,20.17
2019-01-31T02:23:06.976Z,21.63
2019-01-31T02:26:33.747Z,22.00
2019-01-31T02:29:50.056Z,20.70
2019-01-31T02:33:11.681Z,21.13
2019-01-31T02:36:36.866Z,22.07
2019-01-31T02:40:29.211Z,20.67
2019-01-31T02:43:54.732Z,21.53
2019-01-31T02:47:26.422Z,20.17
2019-01-31T02:51:16.719Z,20.05
2019-01-31T02:54:22.373Z,19.73
2019-01-31T02:58:14.031Z,18.87
2019-01-31T03:01:47.666Z,18.98
2019-01-31T03:05:02.228Z,21.00
2019-01-31T03:08:16.535Z,20.47
2019-01-31T03:11:17.883Z,19.57
2019-01-31T03:14:27.126Z,20.17
2019-01-31T03:17:56.920Z,20.10
2019-01-31T03:21:03.739Z,19.85
2019-01-31T03:24:28.578Z,20.50
2019-01-31T03:28:04.221Z,20.17
2019-01-31T03:31:34.477Z,19.70
2019-01-31T03:34:58.799Z,20.63
2019-01-31T03:38:30.369Z,20.40
2019-01-31T03:42:05.547Z,19.73
2019-01-31T03:45:23.494Z,20.13
2019-01-31T03:48:32.713Z,19.97
2019-01-31T03:52:05.205Z,20.63
2019-01-31T03:55:34.852Z,20.00
2019-01-31T03:59:19.690Z,20.50
2019-01-31T04:02:27.027Z,20.67
2019-01-31T04:05:44.790Z,20.40
2019-01-31T04:08:24.017Z,20.00
2019-01-31T04:11:03.462Z,20.43
2019-01-31T04:13:42.698Z,20.53
2019-01-31T04:16:22.158Z,21.83
2019-01-31T04:19:01.413Z,21.70
2019-01-31T04:21:40.632Z,20.57
2019-01-31T04:24:19.719Z,20.87
2019-01-31T04:26:59.166Z,21.57
2019-01-31T04:29:39.472Z,20.87
2019-01-31T04:32:18.598Z,22.10
2019-01-31T04:34:58.182Z,22.33
2019-01-31T04:37:37.623Z,25.23
2019-01-31T04:40:16.953Z,22.87
2019-01-31T04:42:56.337Z,23.10
2019-01-31T04:45:35.714Z,22.33
2019-01-31T04:48:14.887Z,22.20
2019-01-31T04:50:54.061Z,22.33
2019-01-31T04:53:33.552Z,21.97
2019-01-31T04:56:12.775Z,20.67
2019-01-31T04:58:52.948Z,21.77
2019-01-31T05:01:33.915Z,22.03
2019-01-31T05:04:14.587Z,21.40
2019-01-31T05:06:53.876Z,22.10
2019-01-31T05:09:34.337Z,21.37
2019-01-31T05:12:13.525Z,20.40
2019-01-31T05:14:54.016Z,21.87
2019-01-31T05:17:33.263Z,22.10
2019-01-31T05:20:16.116Z,21.93
2019-01-31T05:22:55.275Z,22.03
2019-01-31T05:25:34.664Z,22.77
2019-01-31T05:28:15.113Z,22.00
2019-01-31T05:30:54.503Z,21.70
2019-01-31T05:33:33.877Z,22.40
2019-01-31T05:36:13.254Z,23.47
2019-01-31T05:38:53.988Z,22.83
2019-01-31T05:41:33.306Z,23.23
2019-01-31T05:44:12.547Z,21.57
2019-01-31T05:46:51.940Z,22.90
2019-01-31T05:49:33.327Z,22.57
2019-01-31T05:52:12.707Z,23.13
2019-01-31T05:54:51.897Z,22.53
2019-01-31T05:57:31.246Z,23.17
2019-01-31T06:00:19.808Z,22.90
2019-01-31T06:02:59.228Z,22.03
2019-01-31T06:05:55.376Z,24.33
2019-01-31T06:08:34.515Z,23.03
2019-01-31T06:11:13.678Z,22.60
2019-01-31T06:13:53.034Z,23.43
2019-01-31T06:16:32.195Z,23.47
2019-01-31T06:19:12.966Z,23.27
2019-01-31T06:21:52.576Z,23.27
2019-01-31T06:24:43.780Z,23.40
2019-01-31T06:27:35.181Z,23.60
2019-01-31T06:30:16.411Z,22.60
2019-01-31T06:32:55.661Z,23.57
2019-01-31T06:35:34.840Z,22.03
2019-01-31T06:38:14.191Z,21.70
2019-01-31T06:40:53.436Z,25.17
2019-01-31T06:43:33.882Z,24.43
2019-01-31T06:46:13.197Z,24.30
2019-01-31T06:48:52.356Z,25.50
2019-01-31T06:51:31.783Z,24.47
2019-01-31T06:54:11.125Z,24.13
2019-01-31T06:56:51.477Z,25.93
2019-01-31T06:59:30.717Z,23.83
2019-01-31T07:02:10.152Z,23.93
2019-01-31T07:04:50.389Z,25.00
2019-01-31T07:07:29.726Z,24.63
2019-01-31T07:10:17.782Z,24.00
2019-01-31T07:12:57.021Z,24.70
2019-01-31T07:15:36.444Z,23.60
2019-01-31T07:18:15.772Z,24.73
2019-01-31T07:20:55.086Z,25.13
2019-01-31T07:23:34.543Z,24.63
2019-01-31T07:26:13.807Z,24.13
2019-01-31T07:28:53.304Z,24.33
2019-01-31T07:31:32.527Z,24.70
2019-01-31T07:34:13.860Z,23.33
2019-01-31T07:36:54.275Z,25.30
2019-01-31T07:39:33.656Z,25.70
2019-01-31T07:42:12.939Z,24.53
2019-01-31T07:44:52.255Z,24.57
2019-01-31T07:47:31.839Z,26.10
2019-01-31T07:50:12.688Z,25.07
2019-01-31T07:52:52.071Z,24.67
2019-01-31T07:55:31.270Z,24.57
2019-01-31T07:58:12.075Z,24.60
2019-01-31T08:00:53.729Z,26.20
2019-01-31T08:03:32.875Z,25.17
2019-01-31T08:06:13.913Z,25.30
2019-01-31T08:08:53.152Z,24.77
2019-01-31T08:11:32.831Z,25.20
2019-01-31T08:14:14.128Z,25.97
2019-01-31T08:16:53.374Z,25.47
2019-01-31T08:19:33.662Z,25.67
2019-01-31T08:22:13.494Z,26.00
2019-01-31T08:25:04.830Z,24.20
2019-01-31T08:27:44.695Z,24.80
2019-01-31T08:30:30.445Z,24.55
2019-01-31T08:33:12.077Z,24.37
2019-01-31T08:35:53.949Z,23.20
2019-01-31T08:38:36.603Z,23.25
2019-01-31T08:41:15.122Z,22.67
2019-01-31T08:43:54.902Z,21.37
2019-01-31T08:46:34.870Z,21.93
2019-01-31T08:49:14.859Z,23.95
2019-01-31T08:51:58.142Z,22.60
2019-01-31T08:54:37.970Z,23.70
2019-01-31T08:57:17.860Z,24.43
2019-01-31T08:59:57.648Z,24.15
2019-01-31T09:02:37.484Z,22.82
2019-01-31T09:05:19.731Z,23.35
2019-01-31T09:07:59.577Z,23.62
2019-01-31T09:10:40.739Z,25.02
2019-01-31T09:13:23.801Z,23.80
2019-01-31T09:16:04.441Z,22.40
2019-01-31T09:18:44.269Z,24.27
2019-01-31T09:22:01.938Z,23.45
2019-01-31T09:25:41.327Z,24.87
2019-01-31T09:29:12.961Z,23.30
2019-01-31T09:32:44.342Z,24.27
2019-01-31T09:35:49.829Z,22.50
2019-01-31T09:39:14.108Z,22.42
2019-01-31T09:42:27.048Z,23.18
2019-01-31T09:45:35.633Z,22.15
2019-01-31T09:48:44.069Z,21.85
2019-01-31T09:52:03.867Z,20.12
2019-01-31T09:55:22.826Z,21.35
2019-01-31T09:58:55.897Z,20.30
2019-01-31T10:02:03.749Z,19.50
2019-01-31T10:05:25.769Z,19.50
2019-01-31T10:08:28.545Z,18.65
2019-01-31T10:12:00.489Z,17.27
2019-01-31T10:15:14.990Z,17.17
2019-01-31T10:18:49.785Z,17.45
2019-01-31T10:22:07.871Z,16.40
2019-01-31T10:25:35.806Z,15.55
2019-01-31T10:29:18.226Z,14.28
2019-01-31T10:32:31.368Z,13.32
2019-01-31T10:36:19.837Z,11.43
2019-01-31T10:40:06.320Z,12.85
2019-01-31T10:43:48.782Z,10.95
2019-01-31T10:47:21.131Z,11.33
2019-01-31T10:50:53.379Z,13.57
2019-01-31T10:54:10.367Z,13.60
2019-01-31T10:57:42.796Z,16.20
2019-01-31T11:01:05.137Z,16.70
2019-01-31T11:04:21.733Z,14.77
2019-01-31T11:07:46.669Z,14.63
2019-01-31T11:10:55.705Z,14.37
2019-01-31T11:14:52.458Z,14.00
2019-01-31T11:18:14.480Z,13.27
2019-01-31T11:21:57.534Z,12.63
2019-01-31T11:25:17.112Z,13.00
2019-01-31T11:28:53.689Z,13.80
2019-01-31T11:32:47.707Z,14.00
2019-01-31T11:36:14.723Z,13.80
2019-01-31T11:39:28.341Z,15.73
2019-01-31T11:42:44.866Z,17.03
2019-01-31T11:46:09.843Z,17.03
2019-01-31T11:49:32.005Z,17.83
2019-01-31T11:52:54.056Z,17.67
2019-01-31T11:56:22.407Z,15.23
2019-01-31T11:59:07.101Z,15.90
2019-01-31T12:01:46.644Z,14.50
2019-01-31T12:04:28.035Z,14.63
2019-01-31T12:07:07.570Z,15.37
2019-01-31T12:09:47.097Z,14.50
2019-01-31T12:12:26.636Z,14.10
2019-01-31T12:15:07.302Z,14.10
2019-01-31T12:17:47.999Z,13.47
2019-01-31T12:20:27.611Z,14.10
2019-01-31T12:23:07.460Z,14.53
2019-01-31T12:25:47.141Z,14.80
2019-01-31T12:28:26.675Z,13.20
2019-01-31T12:31:06.921Z,13.93
2019-01-31T12:33:46.479Z,13.50
2019-01-31T12:36:26.184Z,13.70
2019-01-31T12:39:10.341Z,12.53
2019-01-31T12:41:49.897Z,12.73
2019-01-31T12:44:29.422Z,12.60
2019-01-31T12:47:08.885Z,13.13
2019-01-31T12:49:48.346Z,12.70
2019-01-31T12:52:27.807Z,12.23
2019-01-31T12:55:07.527Z,12.67
2019-01-31T12:57:47.616Z,13.20
2019-01-31T13:00:30.849Z,13.73
2019-01-31T13:03:10.406Z,13.30
2019-01-31T13:05:52.490Z,12.53
2019-01-31T13:08:31.978Z,12.63
2019-01-31T13:11:11.673Z,12.07
2019-01-31T13:13:53.672Z,12.67
2019-01-31T13:16:35.371Z,11.53
2019-01-31T13:19:14.993Z,12.00
2019-01-31T13:21:55.483Z,11.57
2019-01-31T13:24:35.317Z,11.20
2019-01-31T13:27:14.858Z,12.00
2019-01-31T13:29:54.720Z,11.25
2019-01-31T13:32:34.507Z,11.25
2019-01-31T13:35:14.815Z,11.63
2019-01-31T13:37:54.658Z,11.68
2019-01-31T13:40:34.609Z,11.20
2019-01-31T13:43:14.472Z,12.05
2019-01-31T13:45:54.446Z,11.75
2019-01-31T13:48:34.221Z,11.95
2019-01-31T13:51:17.466Z,12.53
2019-01-31T13:53:58.566Z,13.45
2019-01-31T13:56:45.725Z,13.15
2019-01-31T13:59:19.999Z,13.08
2019-01-31T14:01:59.968Z,14.20
2019-01-31T14:04:39.718Z,12.45
2019-01-31T14:07:19.462Z,12.30
2019-01-31T14:09:59.207Z,12.73
2019-01-31T14:12:39.029Z,12.43
2019-01-31T14:15:33.071Z,12.70
2019-01-31T14:18:05.129Z,12.47
2019-01-31T14:20:45.055Z,13.10
2019-01-31T14:23:24.800Z,12.75
2019-01-31T14:26:04.674Z,12.18
2019-01-31T14:28:44.419Z,13.32
2019-01-31T14:31:24.240Z,12.98
2019-01-31T14:34:04.067Z,12.00
2019-01-31T14:36:43.994Z,11.97
2019-01-31T14:39:23.681Z,12.50
2019-01-31T14:42:03.780Z,11.75
2019-01-31T14:44:43.705Z,12.43
2019-01-31T14:47:23.467Z,12.33
2019-01-31T14:50:03.208Z,11.45
2019-01-31T14:52:43.749Z,10.72
2019-01-31T14:55:23.822Z,10.88
2019-01-31T14:58:03.698Z,9.63
2019-01-31T15:00:43.515Z,10.30
2019-01-31T15:03:25.613Z,10.13
2019-01-31T15:06:05.481Z,9.80
2019-01-31T15:08:45.312Z,8.90
2019-01-31T15:11:25.269Z,9.18
2019-01-31T15:14:05.698Z,9.53
2019-01-31T15:16:45.476Z,9.43
2019-01-31T15:19:25.258Z,9.50
2019-01-31T15:22:05.462Z,9.35
2019-01-31T15:24:45.321Z,9.40
2019-01-31T15:27:25.113Z,9.68
2019-01-31T15:30:06.999Z,8.58
2019-01-31T15:32:46.872Z,9.15
2019-01-31T15:35:29.625Z,9.65
2019-01-31T15:38:09.450Z,11.28
2019-01-31T15:40:49.899Z,12.05
2019-01-31T15:43:29.203Z,13.15
2019-01-31T15:46:09.000Z,12.75
2019-01-31T15:48:48.921Z,13.85
2019-01-31T15:51:28.731Z,14.43
2019-01-31T15:54:11.374Z,14.87
2019-01-31T15:56:51.397Z,14.47
2019-01-31T15:59:31.551Z,15.70
2019-01-31T16:02:11.440Z,14.78
2019-01-31T16:04:51.377Z,16.23
2019-01-31T16:07:33.578Z,17.05
2019-01-31T16:10:14.617Z,14.78
2019-01-31T16:12:54.325Z,15.75
2019-01-31T16:15:34.381Z,15.90
2019-01-31T16:18:14.389Z,15.50
2019-01-31T16:20:53.767Z,15.93
2019-01-31T16:23:33.072Z,16.15
2019-01-31T16:26:12.327Z,16.73
2019-01-31T16:28:52.205Z,14.85
2019-01-31T16:31:31.508Z,16.15
2019-01-31T16:34:11.322Z,14.70
2019-01-31T16:36:50.792Z,14.70
2019-01-31T16:39:30.741Z,14.23
2019-01-31T16:42:15.865Z,14.38
2019-01-31T16:45:06.384Z,13.75
2019-01-31T16:47:37.437Z,15.00
2019-01-31T16:50:18.595Z,15.32
2019-01-31T16:52:58.951Z,15.43
2019-01-31T16:55:38.809Z,15.48
2019-01-31T16:58:19.078Z,14.60
2019-01-31T17:00:59.216Z,16.32
2019-01-31T17:03:39.125Z,15.50
2019-01-31T17:06:19.148Z,14.73
2019-01-31T17:08:59.003Z,13.40
2019-01-31T17:11:38.885Z,13.62
2019-01-31T17:14:18.088Z,14.65
2019-01-31T17:16:58.020Z,14.73
2019-01-31T17:19:37.318Z,14.25
2019-01-31T17:22:17.199Z,15.32
2019-01-31T17:24:57.011Z,14.18
2019-01-31T17:27:36.817Z,14.85
2019-01-31T17:30:20.064Z,14.78
2019-01-31T17:33:00.577Z,17.75
2019-01-31T17:35:40.785Z,18.67
2019-01-31T17:38:20.746Z,16.73
2019-01-31T17:40:59.878Z,13.80
2019-01-31T17:43:39.199Z,13.98
2019-01-31T17:46:18.577Z,13.43
2019-01-31T17:48:58.009Z,14.85
2019-01-31T17:51:37.346Z,14.40
2019-01-31T17:54:16.643Z,14.28
2019-01-31T17:56:56.778Z,14.93
2019-01-31T17:59:40.947Z,13.88
2019-01-31T18:02:24.183Z,15.20
2019-01-31T18:05:06.754Z,15.13
2019-01-31T18:07:46.195Z,15.08
2019-01-31T18:10:25.910Z,14.38
2019-01-31T18:13:05.684Z,15.18
2019-01-31T18:15:45.161Z,15.00
2019-01-31T18:18:24.558Z,14.90
2019-01-31T18:21:04.379Z,16.35
2019-01-31T18:23:43.779Z,16.30
2019-01-31T18:26:23.198Z,16.57
2019-01-31T18:29:04.124Z,16.70
2019-01-31T18:31:46.517Z,17.40
2019-01-31T18:34:27.096Z,18.02
2019-01-31T18:37:06.737Z,18.10
2019-01-31T18:39:46.949Z,17.10
2019-01-31T18:42:29.493Z,18.05
2019-01-31T18:45:15.234Z,20.63
2019-01-31T18:47:55.082Z,19.17
2019-01-31T18:50:38.005Z,17.17
2019-01-31T18:53:19.659Z,18.57
2019-01-31T18:56:02.183Z,20.47
2019-01-31T18:58:44.702Z,19.15
2019-01-31T19:01:27.211Z,18.30
2019-01-31T19:04:09.669Z,19.45
2019-01-31T19:06:53.869Z,20.05
2019-01-31T19:09:35.331Z,20.05
2019-01-31T19:12:15.187Z,21.20
2019-01-31T19:14:55.769Z,18.98
2019-01-31T19:17:35.698Z,20.65
2019-01-31T19:20:27.245Z,21.10
2019-01-31T19:23:09.853Z,21.23
2019-01-31T19:25:49.391Z,20.87
2019-01-31T19:28:34.203Z,20.68
2019-01-31T19:31:14.483Z,21.25
2019-01-31T19:33:54.893Z,24.95
2019-01-31T19:36:36.889Z,25.90
2019-01-31T19:39:18.866Z,26.10
2019-01-31T19:42:01.834Z,24.37
2019-01-31T19:44:41.999Z,24.05
2019-01-31T19:47:22.390Z,22.05
2019-01-31T19:50:04.095Z,21.80
2019-01-31T19:52:43.881Z,24.37
2019-01-31T19:55:25.511Z,25.40
2019-01-31T19:58:07.324Z,24.50
2019-01-31T20:00:57.703Z,24.72
2019-01-31T20:03:38.060Z,25.72
2019-01-31T20:06:21.205Z,26.60
2019-01-31T20:09:02.166Z,27.48
2019-01-31T20:11:47.051Z,27.40
2019-01-31T20:14:29.208Z,26.12
2019-01-31T20:17:11.759Z,26.67
2019-01-31T20:19:56.145Z,25.37
2019-01-31T20:22:36.654Z,25.85
2019-01-31T20:25:18.920Z,26.13
2019-01-31T20:27:59.427Z,26.40
2019-01-31T20:30:40.845Z,28.27
2019-01-31T20:33:20.558Z,25.17
2019-01-31T20:36:01.114Z,25.00
2019-01-31T20:38:41.524Z,26.80
2019-01-31T20:41:21.064Z,24.55
2019-01-31T20:44:05.226Z,24.87
2019-01-31T20:46:45.775Z,23.83
2019-01-31T20:49:26.069Z,25.60
2019-01-31T20:52:07.601Z,24.13
2019-01-31T20:54:49.596Z,26.05
2019-01-31T20:57:29.870Z,25.68
2019-01-31T21:00:21.714Z,27.65
2019-01-31T21:03:02.965Z,25.40
2019-01-31T21:05:43.599Z,26.60
2019-01-31T21:08:26.233Z,26.00
2019-01-31T21:11:11.116Z,25.67
2019-01-31T21:13:53.241Z,26.17
2019-01-31T21:16:35.930Z,24.57
2019-01-31T21:19:15.282Z,26.60
2019-01-31T21:21:54.760Z,26.63
2019-01-31T21:24:34.043Z,25.87
2019-01-31T21:27:13.265Z,26.60
2019-01-31T21:29:53.971Z,26.42
2019-01-31T21:32:34.723Z,25.77
2019-01-31T21:35:14.470Z,25.27
2019-01-31T21:37:53.905Z,26.05
2019-01-31T21:40:35.689Z,25.70
2019-01-31T21:43:15.091Z,25.07
2019-01-31T21:45:54.410Z,24.70
2019-01-31T21:48:33.571Z,24.33
2019-01-31T21:51:14.044Z,24.77
2019-01-31T21:53:53.912Z,23.55
2019-01-31T21:56:34.174Z,22.87
2019-01-31T21:59:13.527Z,21.37
2019-01-31T22:01:52.712Z,22.17
2019-01-31T22:04:33.693Z,21.17
2019-01-31T22:07:13.534Z,21.68
2019-01-31T22:09:55.717Z,20.50
2019-01-31T22:12:35.382Z,22.13
2019-01-31T22:15:23.860Z,20.55
2019-01-31T22:18:03.438Z,20.93
2019-01-31T22:20:42.916Z,20.70
2019-01-31T22:23:22.125Z,22.00
2019-01-31T22:26:01.936Z,21.87
2019-01-31T22:28:41.777Z,22.20
2019-01-31T22:31:20.930Z,21.42
2019-01-31T22:34:00.211Z,21.43
2019-01-31T22:36:40.039Z,21.35
2019-01-31T22:39:19.918Z,21.68
2019-01-31T22:41:59.251Z,22.07
2019-01-31T22:44:38.485Z,22.43
2019-01-31T22:47:25.893Z,21.25
2019-01-31T22:50:00.661Z,19.45
2019-01-31T22:52:39.992Z,21.23
2019-01-31T22:55:21.452Z,20.23
2019-01-31T22:58:00.831Z,20.50
2019-01-31T23:01:42.129Z,20.20
2019-01-31T23:04:21.418Z,19.73
2019-01-31T23:07:00.657Z,20.63
2019-01-31T23:09:40.152Z,20.77
2019-01-31T23:12:22.668Z,19.37
2019-01-31T23:15:01.882Z,18.90
2019-01-31T23:17:41.080Z,20.53
2019-01-31T23:20:21.393Z,19.80
2019-01-31T23:23:00.528Z,20.33
2019-01-31T23:25:40.557Z,20.47
2019-01-31T23:28:19.746Z,19.73
2019-01-31T23:30:59.041Z,17.93
2019-01-31T23:33:41.130Z,18.90
2019-01-31T23:36:19.213Z,17.43
2019-01-31T23:38:58.392Z,20.27
2019-01-31T23:41:39.173Z,20.23
2019-01-31T23:44:18.262Z,19.20
2019-01-31T23:46:57.473Z,18.87
2019-01-31T23:49:36.647Z,16.50
2019-01-31T23:52:15.877Z,19.03
2019-01-31T23:54:54.982Z,18.30
2019-01-31T23:57:36.621Z,18.43
